logo dgac
Sábado 18 de Agosto del 2018
Buscar por aerodromo o helipuerto
Ingrese nombre de aeródromo, localidad o designador OACI:
TAF: TAF SCRD 181013Z 1812/1824 18010KT CAVOK TX14/1818Z TN12/1812Z TEMPO 1812/1816 21012KT 4000 BR SCT010 BKN020 BKN035 BECMG 1816/1818 22015G25KT
TAF del 18/08/2018 a las 10:13 UTC
Período de validez: desde el 18 a las 12:00 UTC hasta el 18 a las 24:00 UTC
Viento: dirección 180 grados, velocidad 10 nudos
Visibilidad: 10 km o más,
    sin nubes bajo los 5.000 pies o bajo del MSA (Mínimo de Seguridad del Aeródromo),
    sin cumulonimbus, y sin fenómenos de tiempo significativo en el aeródromo o alrededores
Temperatura máxima: 14ºC el 18 a las 18:00 UTC
Temperatura mínima: 12ºC el 18 a las 12:00 UTC
Se espera en forma temporal entre las 12:00 UTC del 18 y las 16:00 UTC del 18:
Viento: dirección 210 grados, velocidad 12 nudos
Visibilidad: 4000 metros
Neblina
Nubes: Nubosidad parcial a 1000 pies sobre el nivel del aeródromo
Nubes: Nublado a 2000 pies sobre el nivel del aeródromo
Nubes: Nublado a 3500 pies sobre el nivel del aeródromo
Se espera un cambio entre las 16:00 UTC del 18 y las 18:00 UTC del 18, :
Viento: dirección 220 grados, velocidad 15 nudos, con ráfagas de velocidad máxima de 25Nudos